FLIGHT INFORMATION
Delta Air Lines

DAL1194

At Arrival Gate

KSLC
 KPDX
DATE: 2019-12-14
GATE:  -
GATE DEPARTURE: 21:57
TAKEOFF: 22:11
DATE: 2019-12-15
GATE:  -
LANDING: 00:01
GATE ARRIVAL: 00:07
FLIGHT DATA
Crew: MICHAEL ROTH
Speed: 461 kts Altitude: 34000 ft
Stage Length: 546 nm
Route: 
Block Time: 2.2 Flight Time: 1.8
Fuel Used: 11746 LB
TRACK DATA
50000 FT1000 KTAltitudeSpeed
AIRCRAFT INFORMATION
Aircraft Type: B739ERSSW
Registration: N850DN
SELCAL:  MSN/LN: 31961 / 5694
Operator: DELTA AIR LINES
Flights: 21 Block Time: 38.2 Flight Time: 32.4
Fuel Used: 259016 LB
  • DEPARTURE INFORMATION
    Date: 2019-12-14
    Airport: KSLC
    Gate:  -
    Gate Departure: 21:57
    Takeoff: 22:11
    ARRIVAL INFORMATION
    Date: 2019-12-15
    Airport: KPDX
    Gate:  -
    Landing: 00:01
    Gate Arrival: 00:07
  • FLIGHT DATA
    Crew: MICHAEL ROTH
    Speed: 461 kts Altitude: 34000 ft
    Stage Length: 295 nm
    Route: 
    Block Time: 2.2 Flight Time: 1.8
    Fuel Used: 11746 LB
  • AIRCRAFT INFORMATION
    Aircraft Type: B739ERSSW
    Registration: N850DN
    SELCAL:  MSN/LN: 31961 / 5694
    Operator: Delta Air Lines
    Flights: 21 Block Time: 38.2 Flight Time: 32.4
    Fuel Used: 259016 LB

DATALINK LOG | Newest first | Current as of: 2020-06-01 20:42:26
LABEL ID SEQUENCE CONTENT Dn/Up
QD083600:07 7.2▼ Dn
QC023000:01▼ Dn
2U4131KPDX 140353Z 29003KT 10SM SCT018 BKN043 06/04 A3005 RMK AO2 SLP173 T00610044▲ Up
2S4131KPDX▼ Dn
QB111022:11▼ Dn
2U5946KSLC 140154Z 16003KT 10SM FEW031 BKN060 BKN075 04/01 A2992 RMK AO2 SLP130 T00440006▲ Up
2S5946KSLC▼ Dn
QA583221:57 19▼ Dn
2U5319KSLC 140054Z 18004KT 10SM BKN021 BKN039 OVC055 04/01 A2996 RMK AO2 RAB04E13 SLP141 P0000 T00440006▲ Up
2S5319KSLC▼ Dn
A30853CLEARED TO KPDX VIA CGULL1 TWF ALKAL IMB JOTBA HHOOD4. SQUAWK 2471.▲ Up
Q00743[LINK ACK]▲ Up
Q04939[LINK TEST]▼ Dn


AIRCRAFT HISTORY
FLIGHT DATE FLIGHT NUMBER ORIGIN DESTINATION ROUTE BLOCK TIME FLIGHT TIME FUEL USED (LB) PILOT
2020-05-05DAL999KCLT TXKF 2.72.115567Charles Harris
2020-03-30DAL202KATL KCLT 10.76094Paul Gollnick
2020-03-22DAL322KMIA KATL 21.611600Charles Harris
2020-02-13DAL243KBOS KMIA 3.4318345Kyle Weber
2020-02-12DAL2533KLAX KBOS 4.94.730512Kyle Weber
2020-02-08DAL5691KSAN KLAX 0.70.53332Kyle Weber
2020-02-07DAL4504KLAX KSAN 0.70.53921Kyle Weber
2020-01-19DAL5691KSAN KLAX 0.80.52813Kyle Weber
2020-01-12DAL5691KLAX KSAN 0.70.53605Kyle Weber
2020-01-11DAL4504KSAN KLAX 0.60.43217Kyle Weber
2020-01-03DAL4504KSAN KSAN KSAN WNFLD GYWNN PADRZ CWARD MADOW SLI MERCE RW24R0.90.53500Kyle Weber
2020-01-03DAL4504KLAX KSAN KLAX SLI DANAH OCN CARIF MZB KSAN0.90.63599Kyle Weber
2019-12-31DAL4504KSAN KLAX KSAN WNFLD GYWNN PADRZ CWARD MADOW SLI MERCE RW24R0.70.53823Kyle Weber
2019-12-25DAL886PHNL KSAN 16.616.333137Jhan Jensen
2019-12-24DAL1515KPDX PHNL KPDX ONP HEMLO HEKAB HELOP HALLI AUNTI APACK PHNL5.75.431381Jhan Jensen
2019-12-23DAL333KRNO KPDX KRNO FMG WNDEL LMT MOXEE PORTL KPDX1.91.510976Charles Harris
2019-12-17DAL333KPDX KRNO 1.81.410147Charles Harris
2019-12-14DAL1194KSLC KPDX 2.21.811746Michael Roth
2019-12-13DAL2795KMSP KSLC 2.82.616027Michael Roth
2019-11-25DAL1936KMIA KMSP 3.73.522393Dan Downs
2019-11-22DAL2211TJSJ KMIA 2.92.716780Charles Harris